Pilote(s) en ligne...
 F-FRAS (Alain)  
 F-JMJM (Jean-Manuel)  Vol    LEMD/LIRF

Compagnie Fsx-France ! Un nouveau look pour votre VA, par : Julien & Co

 METAR ET TAF INFORMATION
METAR FOR VVNB :
VVNB 041700Z VRB02KT 3200 BR BKN009 20/19 Q1006 NOSIG

 AÉROPORT DE AÉROPORT

 INFORMATIONS DE PISTE
Piste 11L Longueur de la piste 3800 m = 12466 ft Largeur de la piste 45 m = 148 ft
Élévation de la piste 40 ft Seuil de la piste déplacés 0 ft Runway heading 107
Piste 29R Longueur de la piste 3800 m = 12466 ft Largeur de la piste 45 m = 148 ft
Élévation de la piste 40 ft Seuil de la piste déplacés 0 ft Runway heading 287
Piste 11R Longueur de la piste 3800 m = 12466 ft Largeur de la piste 45 m = 148 ft
Élévation de la piste 38 ft Seuil de la piste déplacés 0 ft Runway heading 107
Piste 29L Longueur de la piste 3800 m = 12466 ft Largeur de la piste 45 m = 148 ft
Élévation de la piste 39 ft Seuil de la piste déplacés 0 ft Runway heading 287
 AÉROPORT FRÉQUENCES
Type APP Nom APP Féquence 125.1 MHZ
Type GND Nom GND Féquence 121.9 MHZ
Type TWR Nom TWR Féquence 118.2 MHZ

 AIDES A LA NAVIGATION
Type NDB Nom Noibai Féquence 230 KHZ
Type NDB Nom Noibai Féquence 320 KHZ
Type VOR-DME Nom Noibai Féquence 116100 KHZ